sensor_id;sensor_type;location;lat;lon;timestamp;P1;durP1;ratioP1;P2;durP2;ratioP2
33268;SDS011;19640;50.944;5.260;2023-03-04T00:01:40;44.55;;;20.10;;
33268;SDS011;19640;50.944;5.260;2023-03-04T00:04:06;43.33;;;20.42;;
33268;SDS011;19640;50.944;5.260;2023-03-04T00:06:32;42.67;;;19.80;;
33268;SDS011;19640;50.944;5.260;2023-03-04T00:08:57;49.42;;;20.70;;
33268;SDS011;19640;50.944;5.260;2023-03-04T00:11:23;43.40;;;20.48;;
33268;SDS011;19640;50.944;5.260;2023-03-04T00:13:49;48.55;;;20.15;;
33268;SDS011;19640;50.944;5.260;2023-03-04T00:16:15;44.85;;;18.85;;
33268;SDS011;19640;50.944;5.260;2023-03-04T00:18:41;42.25;;;18.75;;
33268;SDS011;19640;50.944;5.260;2023-03-04T00:21:06;42.75;;;20.00;;
33268;SDS011;19640;50.944;5.260;2023-03-04T00:23:32;45.90;;;21.08;;
33268;SDS011;19640;50.944;5.260;2023-03-04T00:25:57;40.20;;;19.58;;
33268;SDS011;19640;50.944;5.260;2023-03-04T00:28:23;44.85;;;20.33;;
33268;SDS011;19640;50.944;5.260;2023-03-04T00:30:49;44.03;;;20.60;;
33268;SDS011;19640;50.944;5.260;2023-03-04T00:33:14;45.05;;;20.30;;
33268;SDS011;19640;50.944;5.260;2023-03-04T00:35:40;47.45;;;20.48;;
33268;SDS011;19640;50.944;5.260;2023-03-04T00:38:06;40.42;;;19.42;;
33268;SDS011;19640;50.944;5.260;2023-03-04T00:40:31;44.08;;;20.30;;
33268;SDS011;19640;50.944;5.260;2023-03-04T00:42:57;41.17;;;18.83;;
33268;SDS011;19640;50.944;5.260;2023-03-04T00:45:23;51.58;;;20.20;;
33268;SDS011;19640;50.944;5.260;2023-03-04T00:47:48;48.70;;;19.55;;
33268;SDS011;19640;50.944;5.260;2023-03-04T00:50:14;42.45;;;19.92;;
33268;SDS011;19640;50.944;5.260;2023-03-04T00:52:40;44.05;;;20.92;;
33268;SDS011;19640;50.944;5.260;2023-03-04T00:55:06;43.78;;;19.80;;
33268;SDS011;19640;50.944;5.260;2023-03-04T00:57:32;48.33;;;21.35;;
33268;SDS011;19640;50.944;5.260;2023-03-04T00:59:58;44.75;;;19.70;;
33268;SDS011;19640;50.944;5.260;2023-03-04T01:02:23;42.88;;;20.17;;
33268;SDS011;19640;50.944;5.260;2023-03-04T01:04:50;41.38;;;19.33;;
33268;SDS011;19640;50.944;5.260;2023-03-04T01:07:15;44.90;;;19.67;;
33268;SDS011;19640;50.944;5.260;2023-03-04T01:09:41;40.45;;;20.08;;
33268;SDS011;19640;50.944;5.260;2023-03-04T01:12:07;41.53;;;19.30;;
33268;SDS011;19640;50.944;5.260;2023-03-04T01:14:32;41.53;;;19.48;;
33268;SDS011;19640;50.944;5.260;2023-03-04T01:16:58;35.47;;;18.70;;
33268;SDS011;19640;50.944;5.260;2023-03-04T01:19:24;50.85;;;20.85;;
33268;SDS011;19640;50.944;5.260;2023-03-04T01:21:50;42.05;;;18.88;;
33268;SDS011;19640;50.944;5.260;2023-03-04T01:24:16;39.72;;;17.65;;
33268;SDS011;19640;50.944;5.260;2023-03-04T01:26:41;42.67;;;19.52;;
33268;SDS011;19640;50.944;5.260;2023-03-04T01:29:07;38.35;;;18.25;;
33268;SDS011;19640;50.944;5.260;2023-03-04T01:31:32;42.67;;;19.10;;
33268;SDS011;19640;50.944;5.260;2023-03-04T01:33:58;37.95;;;17.80;;
33268;SDS011;19640;50.944;5.260;2023-03-04T01:36:24;43.78;;;18.80;;
33268;SDS011;19640;50.944;5.260;2023-03-04T01:38:50;45.75;;;20.55;;
33268;SDS011;19640;50.944;5.260;2023-03-04T01:41:16;38.35;;;19.30;;
33268;SDS011;19640;50.944;5.260;2023-03-04T01:43:45;35.25;;;17.70;;
33268;SDS011;19640;50.944;5.260;2023-03-04T01:46:11;40.75;;;17.73;;
33268;SDS011;19640;50.944;5.260;2023-03-04T01:48:39;42.92;;;19.52;;
33268;SDS011;19640;50.944;5.260;2023-03-04T01:51:08;35.28;;;17.52;;
33268;SDS011;19640;50.944;5.260;2023-03-04T01:53:36;41.78;;;19.05;;
33268;SDS011;19640;50.944;5.260;2023-03-04T01:56:10;36.85;;;18.85;;
33268;SDS011;19640;50.944;5.260;2023-03-04T01:59:16;36.67;;;18.60;;
33268;SDS011;19640;50.944;5.260;2023-03-04T02:01:44;36.90;;;16.90;;
33268;SDS011;19640;50.944;5.260;2023-03-04T02:04:12;37.28;;;18.45;;
33268;SDS011;19640;50.944;5.260;2023-03-04T02:06:39;37.47;;;16.50;;
33268;SDS011;19640;50.944;5.260;2023-03-04T02:09:06;48.75;;;19.27;;
33268;SDS011;19640;50.944;5.260;2023-03-04T02:11:33;38.75;;;18.42;;
33268;SDS011;19640;50.944;5.260;2023-03-04T02:13:59;38.35;;;18.92;;
33268;SDS011;19640;50.944;5.260;2023-03-04T02:16:25;36.38;;;18.20;;
33268;SDS011;19640;50.944;5.260;2023-03-04T02:18:51;43.15;;;18.73;;
33268;SDS011;19640;50.944;5.260;2023-03-04T02:24:05;38.47;;;18.38;;
33268;SDS011;19640;50.944;5.260;2023-03-04T02:26:40;41.85;;;18.17;;
33268;SDS011;19640;50.944;5.260;2023-03-04T02:29:08;36.83;;;17.58;;
33268;SDS011;19640;50.944;5.260;2023-03-04T02:34:15;35.22;;;17.33;;
33268;SDS011;19640;50.944;5.260;2023-03-04T02:36:44;40.30;;;18.40;;
33268;SDS011;19640;50.944;5.260;2023-03-04T02:41:50;32.97;;;17.25;;
33268;SDS011;19640;50.944;5.260;2023-03-04T02:44:19;38.17;;;17.75;;
33268;SDS011;19640;50.944;5.260;2023-03-04T02:46:45;33.80;;;17.65;;
33268;SDS011;19640;50.944;5.260;2023-03-04T02:49:11;40.92;;;18.52;;
33268;SDS011;19640;50.944;5.260;2023-03-04T02:51:38;42.85;;;17.63;;
33268;SDS011;19640;50.944;5.260;2023-03-04T02:54:04;39.80;;;17.70;;
33268;SDS011;19640;50.944;5.260;2023-03-04T02:56:38;32.08;;;17.08;;
33268;SDS011;19640;50.944;5.260;2023-03-04T02:59:08;35.80;;;17.38;;
33268;SDS011;19640;50.944;5.260;2023-03-04T03:01:33;41.10;;;18.27;;
33268;SDS011;19640;50.944;5.260;2023-03-04T03:03:59;30.35;;;16.98;;
33268;SDS011;19640;50.944;5.260;2023-03-04T03:06:25;35.15;;;17.55;;
33268;SDS011;19640;50.944;5.260;2023-03-04T03:08:50;35.80;;;17.20;;
33268;SDS011;19640;50.944;5.260;2023-03-04T03:11:16;35.70;;;17.17;;
33268;SDS011;19640;50.944;5.260;2023-03-04T03:13:41;43.63;;;18.45;;
33268;SDS011;19640;50.944;5.260;2023-03-04T03:16:07;41.17;;;17.27;;
33268;SDS011;19640;50.944;5.260;2023-03-04T03:18:33;38.17;;;17.40;;
33268;SDS011;19640;50.944;5.260;2023-03-04T03:20:58;34.70;;;16.17;;
33268;SDS011;19640;50.944;5.260;2023-03-04T03:23:24;39.30;;;17.05;;
33268;SDS011;19640;50.944;5.260;2023-03-04T03:25:50;34.53;;;15.95;;
33268;SDS011;19640;50.944;5.260;2023-03-04T03:28:15;32.20;;;16.38;;
33268;SDS011;19640;50.944;5.260;2023-03-04T03:30:41;36.60;;;16.00;;
33268;SDS011;19640;50.944;5.260;2023-03-04T03:33:06;41.25;;;15.98;;
33268;SDS011;19640;50.944;5.260;2023-03-04T03:35:32;31.02;;;15.68;;
33268;SDS011;19640;50.944;5.260;2023-03-04T03:37:58;29.80;;;15.32;;
33268;SDS011;19640;50.944;5.260;2023-03-04T03:40:23;31.13;;;16.02;;
33268;SDS011;19640;50.944;5.260;2023-03-04T03:42:49;34.17;;;16.48;;
33268;SDS011;19640;50.944;5.260;2023-03-04T03:45:15;31.88;;;15.45;;
33268;SDS011;19640;50.944;5.260;2023-03-04T03:47:40;29.27;;;14.85;;
33268;SDS011;19640;50.944;5.260;2023-03-04T03:50:06;29.58;;;15.50;;
33268;SDS011;19640;50.944;5.260;2023-03-04T03:52:32;34.47;;;15.15;;
33268;SDS011;19640;50.944;5.260;2023-03-04T03:54:58;29.80;;;13.02;;
33268;SDS011;19640;50.944;5.260;2023-03-04T03:57:26;39.85;;;13.70;;
33268;SDS011;19640;50.944;5.260;2023-03-04T03:59:52;26.45;;;12.43;;
33268;SDS011;19640;50.944;5.260;2023-03-04T04:02:18;28.83;;;13.05;;
33268;SDS011;19640;50.944;5.260;2023-03-04T04:04:43;24.30;;;11.65;;
33268;SDS011;19640;50.944;5.260;2023-03-04T04:07:09;31.05;;;13.18;;
33268;SDS011;19640;50.944;5.260;2023-03-04T04:09:35;27.38;;;12.07;;
33268;SDS011;19640;50.944;5.260;2023-03-04T04:12:00;29.88;;;11.90;;
33268;SDS011;19640;50.944;5.260;2023-03-04T04:14:28;29.52;;;13.82;;
33268;SDS011;19640;50.944;5.260;2023-03-04T04:16:54;31.88;;;12.93;;
33268;SDS011;19640;50.944;5.260;2023-03-04T04:19:19;20.52;;;10.80;;
33268;SDS011;19640;50.944;5.260;2023-03-04T04:21:45;18.00;;;7.20;;
33268;SDS011;19640;50.944;5.260;2023-03-04T04:24:11;21.02;;;10.02;;
33268;SDS011;19640;50.944;5.260;2023-03-04T04:26:37;21.05;;;10.40;;
33268;SDS011;19640;50.944;5.260;2023-03-04T04:29:03;22.50;;;11.38;;
33268;SDS011;19640;50.944;5.260;2023-03-04T04:31:29;20.70;;;8.50;;
33268;SDS011;19640;50.944;5.260;2023-03-04T04:33:54;16.52;;;7.35;;
33268;SDS011;19640;50.944;5.260;2023-03-04T04:36:20;12.35;;;6.78;;
33268;SDS011;19640;50.944;5.260;2023-03-04T04:38:46;15.15;;;7.88;;
33268;SDS011;19640;50.944;5.260;2023-03-04T04:41:23;16.90;;;4.85;;
33268;SDS011;19640;50.944;5.260;2023-03-04T04:43:51;13.52;;;5.47;;
33268;SDS011;19640;50.944;5.260;2023-03-04T04:46:17;11.02;;;4.05;;
33268;SDS011;19640;50.944;5.260;2023-03-04T04:48:43;18.27;;;4.00;;
33268;SDS011;19640;50.944;5.260;2023-03-04T04:51:09;18.73;;;4.80;;
33268;SDS011;19640;50.944;5.260;2023-03-04T04:53:35;9.23;;;2.97;;
33268;SDS011;19640;50.944;5.260;2023-03-04T04:56:08;19.85;;;3.78;;
33268;SDS011;19640;50.944;5.260;2023-03-04T04:58:36;8.88;;;3.33;;
33268;SDS011;19640;50.944;5.260;2023-03-04T05:01:02;14.50;;;4.82;;
33268;SDS011;19640;50.944;5.260;2023-03-04T05:03:28;16.23;;;4.35;;
33268;SDS011;19640;50.944;5.260;2023-03-04T05:05:54;16.73;;;4.50;;
33268;SDS011;19640;50.944;5.260;2023-03-04T05:08:20;10.10;;;4.38;;
33268;SDS011;19640;50.944;5.260;2023-03-04T05:10:46;10.13;;;4.25;;
33268;SDS011;19640;50.944;5.260;2023-03-04T05:13:12;12.07;;;4.07;;
33268;SDS011;19640;50.944;5.260;2023-03-04T05:15:37;16.92;;;4.45;;
33268;SDS011;19640;50.944;5.260;2023-03-04T05:18:03;14.68;;;5.50;;
33268;SDS011;19640;50.944;5.260;2023-03-04T05:20:28;19.25;;;5.55;;
33268;SDS011;19640;50.944;5.260;2023-03-04T05:22:54;14.55;;;5.57;;
33268;SDS011;19640;50.944;5.260;2023-03-04T05:25:20;15.57;;;5.10;;
33268;SDS011;19640;50.944;5.260;2023-03-04T05:27:46;21.52;;;5.20;;
33268;SDS011;19640;50.944;5.260;2023-03-04T05:30:11;13.75;;;5.13;;
33268;SDS011;19640;50.944;5.260;2023-03-04T05:32:37;12.15;;;4.68;;
33268;SDS011;19640;50.944;5.260;2023-03-04T05:35:03;15.70;;;4.95;;
33268;SDS011;19640;50.944;5.260;2023-03-04T05:37:29;17.73;;;5.00;;
33268;SDS011;19640;50.944;5.260;2023-03-04T05:39:55;12.15;;;5.90;;
33268;SDS011;19640;50.944;5.260;2023-03-04T05:42:21;10.35;;;4.20;;
33268;SDS011;19640;50.944;5.260;2023-03-04T05:44:46;16.35;;;5.18;;
33268;SDS011;19640;50.944;5.260;2023-03-04T05:47:12;9.60;;;4.53;;
33268;SDS011;19640;50.944;5.260;2023-03-04T05:49:37;11.65;;;4.40;;
33268;SDS011;19640;50.944;5.260;2023-03-04T05:52:03;11.55;;;4.00;;
33268;SDS011;19640;50.944;5.260;2023-03-04T05:54:29;18.83;;;4.20;;
33268;SDS011;19640;50.944;5.260;2023-03-04T05:56:54;11.55;;;3.70;;
33268;SDS011;19640;50.944;5.260;2023-03-04T05:59:20;16.27;;;4.20;;
33268;SDS011;19640;50.944;5.260;2023-03-04T06:01:46;11.43;;;3.72;;
33268;SDS011;19640;50.944;5.260;2023-03-04T06:04:12;14.57;;;4.18;;
33268;SDS011;19640;50.944;5.260;2023-03-04T06:06:37;14.02;;;4.00;;
33268;SDS011;19640;50.944;5.260;2023-03-04T06:09:03;13.45;;;4.22;;
33268;SDS011;19640;50.944;5.260;2023-03-04T06:11:29;18.85;;;4.20;;
33268;SDS011;19640;50.944;5.260;2023-03-04T06:13:54;9.13;;;3.95;;
33268;SDS011;19640;50.944;5.260;2023-03-04T06:16:20;15.75;;;4.45;;
33268;SDS011;19640;50.944;5.260;2023-03-04T06:18:45;12.10;;;3.95;;
33268;SDS011;19640;50.944;5.260;2023-03-04T06:21:11;16.77;;;4.10;;
33268;SDS011;19640;50.944;5.260;2023-03-04T06:23:37;9.45;;;3.33;;
33268;SDS011;19640;50.944;5.260;2023-03-04T06:26:02;6.82;;;3.90;;
33268;SDS011;19640;50.944;5.260;2023-03-04T06:28:28;10.63;;;4.10;;
33268;SDS011;19640;50.944;5.260;2023-03-04T06:30:55;9.00;;;3.95;;
33268;SDS011;19640;50.944;5.260;2023-03-04T06:33:22;8.57;;;4.22;;
33268;SDS011;19640;50.944;5.260;2023-03-04T06:35:48;11.68;;;4.15;;
33268;SDS011;19640;50.944;5.260;2023-03-04T06:38:18;12.73;;;3.55;;
33268;SDS011;19640;50.944;5.260;2023-03-04T06:40:44;12.85;;;4.30;;
33268;SDS011;19640;50.944;5.260;2023-03-04T06:43:10;14.30;;;3.92;;
33268;SDS011;19640;50.944;5.260;2023-03-04T06:45:37;22.00;;;4.00;;
33268;SDS011;19640;50.944;5.260;2023-03-04T06:48:03;12.13;;;4.40;;
33268;SDS011;19640;50.944;5.260;2023-03-04T06:50:29;12.65;;;3.47;;
33268;SDS011;19640;50.944;5.260;2023-03-04T06:52:57;21.02;;;5.65;;
33268;SDS011;19640;50.944;5.260;2023-03-04T06:55:23;18.40;;;3.97;;
33268;SDS011;19640;50.944;5.260;2023-03-04T06:57:49;10.35;;;3.28;;
33268;SDS011;19640;50.944;5.260;2023-03-04T07:00:15;13.90;;;3.35;;
33268;SDS011;19640;50.944;5.260;2023-03-04T07:02:41;16.52;;;3.35;;
33268;SDS011;19640;50.944;5.260;2023-03-04T07:05:08;15.20;;;3.60;;
33268;SDS011;19640;50.944;5.260;2023-03-04T07:07:34;12.52;;;3.53;;
33268;SDS011;19640;50.944;5.260;2023-03-04T07:10:00;10.13;;;3.38;;
33268;SDS011;19640;50.944;5.260;2023-03-04T07:12:26;10.35;;;2.92;;
33268;SDS011;19640;50.944;5.260;2023-03-04T07:14:51;10.52;;;2.80;;
33268;SDS011;19640;50.944;5.260;2023-03-04T07:17:17;12.65;;;3.85;;
33268;SDS011;19640;50.944;5.260;2023-03-04T07:19:42;10.23;;;2.60;;
33268;SDS011;19640;50.944;5.260;2023-03-04T07:22:09;11.30;;;2.67;;
33268;SDS011;19640;50.944;5.260;2023-03-04T07:24:35;9.68;;;3.22;;
33268;SDS011;19640;50.944;5.260;2023-03-04T07:27:00;11.18;;;4.43;;
33268;SDS011;19640;50.944;5.260;2023-03-04T07:29:26;14.02;;;4.15;;
33268;SDS011;19640;50.944;5.260;2023-03-04T07:31:52;8.10;;;2.80;;
33268;SDS011;19640;50.944;5.260;2023-03-04T07:34:17;20.90;;;3.47;;
33268;SDS011;19640;50.944;5.260;2023-03-04T07:36:43;8.95;;;3.42;;
33268;SDS011;19640;50.944;5.260;2023-03-04T07:39:09;9.60;;;2.85;;
33268;SDS011;19640;50.944;5.260;2023-03-04T07:41:37;9.43;;;4.97;;
33268;SDS011;19640;50.944;5.260;2023-03-04T07:44:03;12.73;;;2.60;;
33268;SDS011;19640;50.944;5.260;2023-03-04T07:46:30;8.40;;;2.72;;
33268;SDS011;19640;50.944;5.260;2023-03-04T07:48:57;6.60;;;2.13;;
33268;SDS011;19640;50.944;5.260;2023-03-04T07:51:23;16.40;;;2.97;;
33268;SDS011;19640;50.944;5.260;2023-03-04T07:53:52;9.65;;;2.35;;
33268;SDS011;19640;50.944;5.260;2023-03-04T07:56:21;6.78;;;2.35;;
33268;SDS011;19640;50.944;5.260;2023-03-04T07:58:49;8.32;;;2.38;;
33268;SDS011;19640;50.944;5.260;2023-03-04T08:01:19;6.97;;;3.05;;
33268;SDS011;19640;50.944;5.260;2023-03-04T08:03:47;5.63;;;2.20;;
33268;SDS011;19640;50.944;5.260;2023-03-04T08:06:13;7.03;;;1.92;;
33268;SDS011;19640;50.944;5.260;2023-03-04T08:08:41;8.38;;;2.50;;
33268;SDS011;19640;50.944;5.260;2023-03-04T08:11:40;12.18;;;2.42;;
33268;SDS011;19640;50.944;5.260;2023-03-04T08:14:00;6.95;;;2.13;;
33268;SDS011;19640;50.944;5.260;2023-03-04T08:16:25;10.05;;;2.20;;
33268;SDS011;19640;50.944;5.260;2023-03-04T08:18:52;10.43;;;2.17;;
33268;SDS011;19640;50.944;5.260;2023-03-04T08:21:22;4.60;;;1.90;;
33268;SDS011;19640;50.944;5.260;2023-03-04T08:23:49;7.53;;;2.45;;
33268;SDS011;19640;50.944;5.260;2023-03-04T08:28:46;7.95;;;1.90;;
33268;SDS011;19640;50.944;5.260;2023-03-04T08:31:13;9.55;;;2.10;;
33268;SDS011;19640;50.944;5.260;2023-03-04T08:33:39;9.98;;;2.10;;
33268;SDS011;19640;50.944;5.260;2023-03-04T08:36:05;9.93;;;2.47;;
33268;SDS011;19640;50.944;5.260;2023-03-04T08:38:31;7.43;;;2.42;;
33268;SDS011;19640;50.944;5.260;2023-03-04T08:40:57;9.35;;;2.53;;
33268;SDS011;19640;50.944;5.260;2023-03-04T08:43:23;8.15;;;2.22;;
33268;SDS011;19640;50.944;5.260;2023-03-04T08:45:49;10.23;;;2.53;;
33268;SDS011;19640;50.944;5.260;2023-03-04T08:48:16;15.80;;;3.10;;
33268;SDS011;19640;50.944;5.260;2023-03-04T08:50:43;9.18;;;2.92;;
33268;SDS011;19640;50.944;5.260;2023-03-04T08:53:09;7.95;;;2.83;;
33268;SDS011;19640;50.944;5.260;2023-03-04T08:55:39;9.63;;;2.50;;
33268;SDS011;19640;50.944;5.260;2023-03-04T08:58:05;9.68;;;2.60;;
33268;SDS011;19640;50.944;5.260;2023-03-04T09:00:32;8.38;;;1.65;;
33268;SDS011;19640;50.944;5.260;2023-03-04T09:02:58;5.38;;;2.30;;
33268;SDS011;19640;50.944;5.260;2023-03-04T09:05:24;8.95;;;2.28;;
33268;SDS011;19640;50.944;5.260;2023-03-04T09:07:50;7.40;;;2.17;;
33268;SDS011;19640;50.944;5.260;2023-03-04T09:10:15;3.85;;;1.73;;
33268;SDS011;19640;50.944;5.260;2023-03-04T09:12:41;10.63;;;2.50;;
33268;SDS011;19640;50.944;5.260;2023-03-04T09:15:07;5.82;;;2.03;;
33268;SDS011;19640;50.944;5.260;2023-03-04T09:17:33;5.22;;;2.35;;
33268;SDS011;19640;50.944;5.260;2023-03-04T09:19:58;3.55;;;1.33;;
33268;SDS011;19640;50.944;5.260;2023-03-04T09:22:24;4.63;;;1.65;;
33268;SDS011;19640;50.944;5.260;2023-03-04T09:24:50;5.93;;;1.30;;
33268;SDS011;19640;50.944;5.260;2023-03-04T09:27:15;2.75;;;1.10;;
33268;SDS011;19640;50.944;5.260;2023-03-04T09:29:42;8.35;;;1.50;;
33268;SDS011;19640;50.944;5.260;2023-03-04T09:32:09;4.82;;;1.20;;
33268;SDS011;19640;50.944;5.260;2023-03-04T09:34:35;5.50;;;1.30;;
33268;SDS011;19640;50.944;5.260;2023-03-04T09:37:01;3.63;;;0.98;;
33268;SDS011;19640;50.944;5.260;2023-03-04T09:39:26;4.70;;;1.08;;
33268;SDS011;19640;50.944;5.260;2023-03-04T09:41:53;5.32;;;1.50;;
33268;SDS011;19640;50.944;5.260;2023-03-04T09:44:23;2.13;;;1.20;;
33268;SDS011;19640;50.944;5.260;2023-03-04T09:46:53;3.70;;;1.07;;
33268;SDS011;19640;50.944;5.260;2023-03-04T09:49:22;2.97;;;1.38;;
33268;SDS011;19640;50.944;5.260;2023-03-04T09:52:03;2.58;;;1.30;;
33268;SDS011;19640;50.944;5.260;2023-03-04T09:57:39;4.57;;;1.63;;
33268;SDS011;19640;50.944;5.260;2023-03-04T10:00:13;7.15;;;3.80;;
33268;SDS011;19640;50.944;5.260;2023-03-04T10:05:45;6.35;;;1.80;;
33268;SDS011;19640;50.944;5.260;2023-03-04T10:11:00;8.23;;;2.67;;
33268;SDS011;19640;50.944;5.260;2023-03-04T10:13:42;7.45;;;3.08;;
33268;SDS011;19640;50.944;5.260;2023-03-04T10:16:19;6.50;;;3.10;;
33268;SDS011;19640;50.944;5.260;2023-03-04T10:18:54;8.63;;;2.78;;
33268;SDS011;19640;50.944;5.260;2023-03-04T10:21:29;8.70;;;3.97;;
33268;SDS011;19640;50.944;5.260;2023-03-04T10:24:00;9.23;;;2.90;;
33268;SDS011;19640;50.944;5.260;2023-03-04T10:26:35;6.60;;;3.15;;
33268;SDS011;19640;50.944;5.260;2023-03-04T10:29:02;4.60;;;2.78;;
33268;SDS011;19640;50.944;5.260;2023-03-04T10:33:58;10.15;;;2.53;;
33268;SDS011;19640;50.944;5.260;2023-03-04T10:41:24;4.75;;;2.53;;
33268;SDS011;19640;50.944;5.260;2023-03-04T10:46:32;7.55;;;2.30;;
33268;SDS011;19640;50.944;5.260;2023-03-04T10:49:05;9.43;;;2.17;;
33268;SDS011;19640;50.944;5.260;2023-03-04T10:51:37;6.82;;;2.47;;
33268;SDS011;19640;50.944;5.260;2023-03-04T10:54:08;7.00;;;2.28;;
33268;SDS011;19640;50.944;5.260;2023-03-04T10:56:53;3.42;;;1.67;;
33268;SDS011;19640;50.944;5.260;2023-03-04T11:01:58;6.65;;;2.63;;
33268;SDS011;19640;50.944;5.260;2023-03-04T11:04:26;3.42;;;2.65;;
33268;SDS011;19640;50.944;5.260;2023-03-04T11:06:57;10.13;;;2.92;;
33268;SDS011;19640;50.944;5.260;2023-03-04T11:09:24;8.48;;;3.45;;
33268;SDS011;19640;50.944;5.260;2023-03-04T11:11:51;11.35;;;4.32;;
33268;SDS011;19640;50.944;5.260;2023-03-04T11:17:27;9.07;;;4.13;;
33268;SDS011;19640;50.944;5.260;2023-03-04T11:20:16;6.22;;;4.63;;
33268;SDS011;19640;50.944;5.260;2023-03-04T11:22:50;7.15;;;4.43;;
33268;SDS011;19640;50.944;5.260;2023-03-04T11:25:25;12.40;;;4.90;;
33268;SDS011;19640;50.944;5.260;2023-03-04T11:28:37;9.77;;;4.43;;
33268;SDS011;19640;50.944;5.260;2023-03-04T11:31:00;8.88;;;4.03;;
33268;SDS011;19640;50.944;5.260;2023-03-04T11:36:20;7.05;;;3.50;;
33268;SDS011;19640;50.944;5.260;2023-03-04T11:38:57;11.20;;;4.40;;
33268;SDS011;19640;50.944;5.260;2023-03-04T11:43:57;7.32;;;4.10;;
33268;SDS011;19640;50.944;5.260;2023-03-04T11:57:28;5.50;;;3.78;;
33268;SDS011;19640;50.944;5.260;2023-03-04T12:00:35;6.32;;;3.58;;
33268;SDS011;19640;50.944;5.260;2023-03-04T12:03:11;10.48;;;4.70;;
33268;SDS011;19640;50.944;5.260;2023-03-04T12:08:47;9.63;;;4.32;;
33268;SDS011;19640;50.944;5.260;2023-03-04T12:11:27;6.47;;;4.60;;
33268;SDS011;19640;50.944;5.260;2023-03-04T12:14:22;6.97;;;3.88;;
33268;SDS011;19640;50.944;5.260;2023-03-04T12:17:08;3.78;;;3.25;;
33268;SDS011;19640;50.944;5.260;2023-03-04T12:22:12;7.85;;;3.47;;
33268;SDS011;19640;50.944;5.260;2023-03-04T12:24:53;5.57;;;3.80;;
33268;SDS011;19640;50.944;5.260;2023-03-04T12:27:51;6.68;;;3.60;;
33268;SDS011;19640;50.944;5.260;2023-03-04T12:38:49;4.55;;;2.35;;
33268;SDS011;19640;50.944;5.260;2023-03-04T12:52:02;7.35;;;2.40;;
33268;SDS011;19640;50.944;5.260;2023-03-04T12:54:38;4.80;;;2.50;;
33268;SDS011;19640;50.944;5.260;2023-03-04T12:59:56;5.45;;;2.55;;
33268;SDS011;19640;50.944;5.260;2023-03-04T13:02:34;5.40;;;2.20;;
33268;SDS011;19640;50.944;5.260;2023-03-04T13:10:26;5.40;;;2.65;;
33268;SDS011;19640;50.944;5.260;2023-03-04T13:12:55;3.00;;;2.33;;
33268;SDS011;19640;50.944;5.260;2023-03-04T13:23:36;5.25;;;2.80;;
33268;SDS011;19640;50.944;5.260;2023-03-04T13:28:35;6.63;;;2.90;;
33268;SDS011;19640;50.944;5.260;2023-03-04T13:33:50;8.45;;;2.83;;
33268;SDS011;19640;50.944;5.260;2023-03-04T13:36:28;7.00;;;3.10;;
33268;SDS011;19640;50.944;5.260;2023-03-04T13:41:51;5.15;;;2.75;;
33268;SDS011;19640;50.944;5.260;2023-03-04T13:47:09;3.38;;;2.95;;
33268;SDS011;19640;50.944;5.260;2023-03-04T13:49:40;5.82;;;2.88;;
33268;SDS011;19640;50.944;5.260;2023-03-04T13:57:57;9.50;;;4.13;;
33268;SDS011;19640;50.944;5.260;2023-03-04T14:00:22;7.95;;;3.03;;
33268;SDS011;19640;50.944;5.260;2023-03-04T14:02:49;5.68;;;2.97;;
33268;SDS011;19640;50.944;5.260;2023-03-04T14:05:15;3.83;;;2.80;;
33268;SDS011;19640;50.944;5.260;2023-03-04T14:07:40;7.85;;;3.25;;
33268;SDS011;19640;50.944;5.260;2023-03-04T14:12:45;5.18;;;3.33;;
33268;SDS011;19640;50.944;5.260;2023-03-04T14:15:26;5.38;;;3.08;;
33268;SDS011;19640;50.944;5.260;2023-03-04T14:17:55;3.85;;;3.00;;
33268;SDS011;19640;50.944;5.260;2023-03-04T14:20:29;7.65;;;2.50;;
33268;SDS011;19640;50.944;5.260;2023-03-04T14:23:01;5.10;;;2.22;;
33268;SDS011;19640;50.944;5.260;2023-03-04T14:25:29;6.85;;;2.28;;
33268;SDS011;19640;50.944;5.260;2023-03-04T14:28:03;3.97;;;1.60;;
33268;SDS011;19640;50.944;5.260;2023-03-04T14:30:34;6.57;;;1.83;;
33268;SDS011;19640;50.944;5.260;2023-03-04T14:33:00;5.00;;;2.60;;
33268;SDS011;19640;50.944;5.260;2023-03-04T14:35:30;3.85;;;2.50;;
33268;SDS011;19640;50.944;5.260;2023-03-04T14:40:41;10.48;;;2.80;;
33268;SDS011;19640;50.944;5.260;2023-03-04T14:43:12;4.15;;;2.40;;
33268;SDS011;19640;50.944;5.260;2023-03-04T14:45:43;5.57;;;2.28;;
33268;SDS011;19640;50.944;5.260;2023-03-04T14:48:15;4.22;;;2.42;;
33268;SDS011;19640;50.944;5.260;2023-03-04T14:50:53;7.45;;;3.83;;
33268;SDS011;19640;50.944;5.260;2023-03-04T14:53:21;7.05;;;2.42;;
33268;SDS011;19640;50.944;5.260;2023-03-04T14:56:01;3.65;;;2.50;;
33268;SDS011;19640;50.944;5.260;2023-03-04T14:58:29;4.85;;;2.35;;
33268;SDS011;19640;50.944;5.260;2023-03-04T15:01:15;6.10;;;2.45;;
33268;SDS011;19640;50.944;5.260;2023-03-04T15:04:00;5.47;;;2.85;;
33268;SDS011;19640;50.944;5.260;2023-03-04T15:06:53;5.28;;;3.50;;
33268;SDS011;19640;50.944;5.260;2023-03-04T15:09:23;4.85;;;2.90;;
33268;SDS011;19640;50.944;5.260;2023-03-04T15:11:55;7.90;;;3.35;;
33268;SDS011;19640;50.944;5.260;2023-03-04T15:17:27;3.45;;;3.10;;
33268;SDS011;19640;50.944;5.260;2023-03-04T15:22:33;5.88;;;3.90;;
33268;SDS011;19640;50.944;5.260;2023-03-04T15:25:00;6.50;;;4.15;;
33268;SDS011;19640;50.944;5.260;2023-03-04T15:27:26;4.55;;;3.38;;
33268;SDS011;19640;50.944;5.260;2023-03-04T15:29:54;6.18;;;3.80;;
33268;SDS011;19640;50.944;5.260;2023-03-04T15:32:26;4.30;;;3.90;;
33268;SDS011;19640;50.944;5.260;2023-03-04T15:34:53;4.85;;;4.35;;
33268;SDS011;19640;50.944;5.260;2023-03-04T15:37:20;5.10;;;3.70;;
33268;SDS011;19640;50.944;5.260;2023-03-04T15:39:48;5.38;;;4.28;;
33268;SDS011;19640;50.944;5.260;2023-03-04T15:42:15;6.07;;;3.85;;
33268;SDS011;19640;50.944;5.260;2023-03-04T15:44:42;9.23;;;4.22;;
33268;SDS011;19640;50.944;5.260;2023-03-04T15:47:09;8.07;;;4.10;;
33268;SDS011;19640;50.944;5.260;2023-03-04T15:49:38;5.40;;;4.65;;
33268;SDS011;19640;50.944;5.260;2023-03-04T15:52:05;8.43;;;5.65;;
33268;SDS011;19640;50.944;5.260;2023-03-04T15:54:35;4.80;;;4.35;;
33268;SDS011;19640;50.944;5.260;2023-03-04T15:57:01;4.63;;;4.20;;
33268;SDS011;19640;50.944;5.260;2023-03-04T15:59:32;5.18;;;4.50;;
33268;SDS011;19640;50.944;5.260;2023-03-04T16:01:58;5.45;;;4.28;;
33268;SDS011;19640;50.944;5.260;2023-03-04T16:04:23;5.82;;;4.38;;
33268;SDS011;19640;50.944;5.260;2023-03-04T16:06:49;7.38;;;5.05;;
33268;SDS011;19640;50.944;5.260;2023-03-04T16:09:16;9.77;;;4.45;;
33268;SDS011;19640;50.944;5.260;2023-03-04T16:11:45;8.52;;;4.45;;
33268;SDS011;19640;50.944;5.260;2023-03-04T16:14:12;6.05;;;4.28;;
33268;SDS011;19640;50.944;5.260;2023-03-04T16:16:41;6.85;;;4.78;;
33268;SDS011;19640;50.944;5.260;2023-03-04T16:19:11;5.28;;;4.55;;
33268;SDS011;19640;50.944;5.260;2023-03-04T16:21:36;5.60;;;5.10;;
33268;SDS011;19640;50.944;5.260;2023-03-04T16:24:02;4.80;;;4.40;;
33268;SDS011;19640;50.944;5.260;2023-03-04T16:26:28;5.53;;;4.40;;
33268;SDS011;19640;50.944;5.260;2023-03-04T16:28:55;5.28;;;4.85;;
33268;SDS011;19640;50.944;5.260;2023-03-04T16:31:21;5.70;;;4.32;;
33268;SDS011;19640;50.944;5.260;2023-03-04T16:33:47;6.97;;;4.85;;
33268;SDS011;19640;50.944;5.260;2023-03-04T16:36:14;4.65;;;4.10;;
33268;SDS011;19640;50.944;5.260;2023-03-04T16:38:43;6.53;;;4.88;;
33268;SDS011;19640;50.944;5.260;2023-03-04T16:41:10;7.35;;;4.80;;
33268;SDS011;19640;50.944;5.260;2023-03-04T16:43:39;8.25;;;4.53;;